createdAt,value
2023-12-15T00:14:48.557Z,6.7
2023-12-15T00:34:48.340Z,6.7
2023-12-15T00:54:48.498Z,6.8
2023-12-15T01:14:48.472Z,6.7
2023-12-15T01:34:48.215Z,6.8
2023-12-15T01:54:48.383Z,6.8
2023-12-15T02:14:48.376Z,6.6
2023-12-15T02:34:48.409Z,6.8
2023-12-15T02:54:48.320Z,6.7
2023-12-15T03:14:48.274Z,6.8
2023-12-15T03:34:48.244Z,6.7
2023-12-15T03:54:48.236Z,6.7
2023-12-15T04:14:48.219Z,6.7
2023-12-15T04:34:48.180Z,6.7
2023-12-15T04:54:48.139Z,6.6
2023-12-15T05:34:48.047Z,6.6
2023-12-15T05:54:48.041Z,6.6
2023-12-15T06:14:48.024Z,6.5
2023-12-15T06:34:47.973Z,6.5
2023-12-15T06:54:47.956Z,6.5
2023-12-15T07:14:47.945Z,6.5
2023-12-15T07:34:47.884Z,6.5
2023-12-15T07:54:47.839Z,6.9
2023-12-15T08:14:47.789Z,6.7
2023-12-15T08:34:47.587Z,6.6
2023-12-15T08:54:47.782Z,6.9
2023-12-15T09:14:47.761Z,6.6
2023-12-15T09:34:47.706Z,6.4
2023-12-15T09:54:47.669Z,6.7
2023-12-15T10:14:47.443Z,6.9
2023-12-15T10:34:47.394Z,7
2023-12-15T10:54:47.588Z,7
2023-12-15T11:14:47.550Z,7.4
2023-12-15T11:34:47.516Z,7.4
2023-12-15T11:54:47.264Z,7.4
2023-12-15T12:14:47.442Z,7.3
2023-12-15T12:54:47.387Z,7.6
2023-12-15T13:14:47.418Z,7.5
2023-12-15T13:34:47.723Z,7.7
2023-12-15T13:54:47.294Z,7.5
2023-12-15T14:14:47.330Z,7.5
2023-12-15T14:34:47.159Z,7.4
2023-12-15T14:54:46.985Z,7.3
2023-12-15T15:14:47.267Z,7.4
2023-12-15T15:34:55.123Z,7.7
2023-12-15T15:54:47.100Z,7.7
2023-12-15T16:14:47.088Z,7.5
2023-12-15T16:34:47.038Z,7.4
2023-12-15T16:54:47.035Z,7.3
2023-12-15T17:34:47.022Z,7.2
2023-12-15T17:54:46.963Z,7.2
2023-12-15T18:14:46.905Z,7.2
2023-12-15T18:34:46.985Z,7.2
2023-12-15T18:54:46.905Z,7.2
2023-12-15T19:14:46.599Z,7.2
2023-12-15T19:34:46.969Z,7.1
2023-12-15T19:54:46.773Z,7.2
2023-12-15T20:14:46.739Z,7.1
2023-12-15T20:34:46.756Z,7.1
2023-12-15T20:54:46.598Z,7.2
2023-12-15T21:14:46.623Z,7.1
2023-12-15T21:34:46.680Z,7.1
2023-12-15T21:54:46.564Z,7.1
2023-12-15T22:14:46.530Z,7.1
2023-12-15T22:34:46.564Z,7.1
2023-12-15T22:54:46.512Z,7.1
2023-12-15T23:14:46.379Z,7.1
2023-12-15T23:34:46.529Z,7.1
2023-12-15T23:54:46.419Z,7.1
